DAL1049 KLAX-KDEN
Flight info
| Callsign | DAL1049 |
|---|---|
| Flight time | N/A |
| Altitude | 37000 |
| Route | ORCKA5 LAS J146 DICEE BUMMP SSKII4 |
| Aircraft | A319/M-SDE3FGHIRWY/LB1 |
Departure
| Time | 2026-04-26 03:15 |
|---|---|
| Airport | Los Angeles International Airport (KLAX) |
Arrival
| Time | N/A |
|---|---|
| Airport | Denver International Airport (KDEN) |
| Time | Latitude | Longitude | Altitude | Speed | Heading |
|---|---|---|---|---|---|
| 2026-04-26 02:50 | 33.94742 | -118.40365 | 93 ft | 0 kts | 203° |
| 2026-04-26 03:00 | 33.94763 | -118.40354 | 92 ft | 4 kts | 203° |
| 2026-04-26 03:00 | 33.94782 | -118.40345 | 93 ft | 4 kts | 201° |
| 2026-04-26 03:00 | 33.94803 | -118.40333 | 95 ft | 4 kts | 227° |
| 2026-04-26 03:00 | 33.94810 | -118.40321 | 94 ft | 2 kts | 262° |
| 2026-04-26 03:01 | 33.94812 | -118.40303 | 93 ft | 0 kts | 262° |
| 2026-04-26 03:03 | 33.94810 | -118.40320 | 94 ft | 3 kts | 261° |
| 2026-04-26 03:03 | 33.94805 | -118.40358 | 89 ft | 5 kts | 262° |
| 2026-04-26 03:04 | 33.94801 | -118.40399 | 95 ft | 5 kts | 262° |
| 2026-04-26 03:04 | 33.94795 | -118.40451 | 93 ft | 8 kts | 262° |
| 2026-04-26 03:04 | 33.94787 | -118.40524 | 94 ft | 10 kts | 263° |
| 2026-04-26 03:04 | 33.94779 | -118.40604 | 93 ft | 9 kts | 264° |
| 2026-04-26 03:05 | 33.94774 | -118.40668 | 94 ft | 8 kts | 262° |
| 2026-04-26 03:05 | 33.94765 | -118.40754 | 93 ft | 12 kts | 263° |
| 2026-04-26 03:05 | 33.94754 | -118.40855 | 93 ft | 11 kts | 263° |
| 2026-04-26 03:05 | 33.94746 | -118.40936 | 94 ft | 9 kts | 263° |
| 2026-04-26 03:06 | 33.94736 | -118.41027 | 93 ft | 13 kts | 263° |
| 2026-04-26 03:06 | 33.94723 | -118.41150 | 93 ft | 16 kts | 259° |
| 2026-04-26 03:06 | 33.94691 | -118.41278 | 93 ft | 16 kts | 264° |
| 2026-04-26 03:06 | 33.94659 | -118.41373 | 95 ft | 12 kts | 202° |
| 2026-04-26 03:07 | 33.94571 | -118.41366 | 93 ft | 15 kts | 173° |
| 2026-04-26 03:07 | 33.94460 | -118.41350 | 94 ft | 17 kts | 173° |
| 2026-04-26 03:07 | 33.94341 | -118.41331 | 93 ft | 18 kts | 173° |
| 2026-04-26 03:07 | 33.94217 | -118.41313 | 95 ft | 18 kts | 173° |
| 2026-04-26 03:08 | 33.94093 | -118.41294 | 93 ft | 19 kts | 173° |
| 2026-04-26 03:08 | 33.93964 | -118.41276 | 93 ft | 15 kts | 173° |
| 2026-04-26 03:08 | 33.93857 | -118.41260 | 93 ft | 16 kts | 173° |
| 2026-04-26 03:08 | 33.93762 | -118.41231 | 95 ft | 12 kts | 134° |
| 2026-04-26 03:09 | 33.93763 | -118.41128 | 94 ft | 13 kts | 83° |
| 2026-04-26 03:09 | 33.93775 | -118.41016 | 93 ft | 14 kts | 83° |
| 2026-04-26 03:09 | 33.93787 | -118.40899 | 94 ft | 14 kts | 83° |
| 2026-04-26 03:09 | 33.93799 | -118.40781 | 94 ft | 14 kts | 83° |
| 2026-04-26 03:10 | 33.93813 | -118.40646 | 94 ft | 18 kts | 83° |
| 2026-04-26 03:10 | 33.93829 | -118.40482 | 95 ft | 21 kts | 83° |
| 2026-04-26 03:10 | 33.93848 | -118.40300 | 96 ft | 23 kts | 83° |
| 2026-04-26 03:10 | 33.93868 | -118.40105 | 98 ft | 23 kts | 83° |
| 2026-04-26 03:11 | 33.93888 | -118.39910 | 96 ft | 24 kts | 83° |
| 2026-04-26 03:11 | 33.93908 | -118.39712 | 95 ft | 24 kts | 83° |
| 2026-04-26 03:11 | 33.93929 | -118.39511 | 96 ft | 24 kts | 82° |
| 2026-04-26 03:11 | 33.93950 | -118.39305 | 93 ft | 25 kts | 83° |
| 2026-04-26 03:12 | 33.93971 | -118.39097 | 94 ft | 25 kts | 83° |
| 2026-04-26 03:12 | 33.93992 | -118.38890 | 94 ft | 25 kts | 83° |
| 2026-04-26 03:12 | 33.94013 | -118.38684 | 95 ft | 25 kts | 83° |
| 2026-04-26 03:12 | 33.94034 | -118.38481 | 96 ft | 24 kts | 83° |
| 2026-04-26 03:13 | 33.94052 | -118.38301 | 96 ft | 19 kts | 83° |
| 2026-04-26 03:13 | 33.94068 | -118.38148 | 94 ft | 18 kts | 83° |
| 2026-04-26 03:13 | 33.94078 | -118.38032 | 93 ft | 10 kts | 94° |
| 2026-04-26 03:13 | 33.94026 | -118.37997 | 93 ft | 9 kts | 171° |
| 2026-04-26 03:14 | 33.93983 | -118.38027 | 94 ft | 7 kts | 263° |
| 2026-04-26 03:14 | 33.93981 | -118.38048 | 95 ft | 0 kts | 263° |
| 2026-04-26 03:15 | 33.93977 | -118.38093 | 94 ft | 25 kts | 263° |
| 2026-04-26 03:15 | 33.93923 | -118.38624 | 100 ft | 100 kts | 263° |
| 2026-04-26 03:15 | 33.93806 | -118.39698 | 141 ft | 152 kts | 261° |
| 2026-04-26 03:15 | 33.93661 | -118.40958 | 822 ft | 152 kts | 261° |
| 2026-04-26 03:16 | 33.93681 | -118.42223 | 1586 ft | 150 kts | 273° |
| 2026-04-26 03:16 | 33.93631 | -118.43527 | 2106 ft | 166 kts | 263° |
| 2026-04-26 03:16 | 33.93366 | -118.44972 | 2552 ft | 185 kts | 256° |
| 2026-04-26 03:16 | 33.92889 | -118.46530 | 2937 ft | 211 kts | 248° |
| 2026-04-26 03:17 | 33.92294 | -118.48196 | 3601 ft | 225 kts | 249° |
| 2026-04-26 03:17 | 33.91687 | -118.49946 | 4537 ft | 229 kts | 249° |
| 2026-04-26 03:17 | 33.91072 | -118.51726 | 5487 ft | 232 kts | 249° |
| 2026-04-26 03:17 | 33.90454 | -118.53534 | 6450 ft | 235 kts | 249° |
| 2026-04-26 03:18 | 33.89599 | -118.55234 | 7328 ft | 242 kts | 227° |
| 2026-04-26 03:18 | 33.88157 | -118.56304 | 8262 ft | 251 kts | 200° |
| 2026-04-26 03:18 | 33.86399 | -118.56382 | 9208 ft | 263 kts | 170° |
| 2026-04-26 03:18 | 33.84777 | -118.55295 | 10104 ft | 278 kts | 138° |
| 2026-04-26 03:19 | 33.83841 | -118.53220 | 10892 ft | 292 kts | 103° |
| 2026-04-26 03:19 | 33.83954 | -118.50767 | 11658 ft | 301 kts | 69° |
| 2026-04-26 03:19 | 33.85110 | -118.48679 | 12307 ft | 308 kts | 40° |
| 2026-04-26 03:19 | 33.86887 | -118.47115 | 12605 ft | 327 kts | 26° |
| 2026-04-26 03:20 | 33.88981 | -118.45814 | 12896 ft | 348 kts | 21° |
| 2026-04-26 03:20 | 33.91204 | -118.44544 | 13486 ft | 360 kts | 24° |
| 2026-04-26 03:20 | 33.93310 | -118.42837 | 14145 ft | 371 kts | 38° |
| 2026-04-26 03:20 | 33.95027 | -118.40481 | 14812 ft | 379 kts | 54° |
| 2026-04-26 03:21 | 33.96507 | -118.37836 | 15522 ft | 383 kts | 55° |
| 2026-04-26 03:21 | 33.97985 | -118.35144 | 16165 ft | 388 kts | 56° |
| 2026-04-26 03:21 | 33.99488 | -118.32412 | 16798 ft | 394 kts | 56° |
| 2026-04-26 03:21 | 34.01025 | -118.29645 | 17453 ft | 399 kts | 55° |
| 2026-04-26 03:22 | 34.02586 | -118.26866 | 18111 ft | 404 kts | 55° |
| 2026-04-26 03:22 | 34.04181 | -118.24051 | 18736 ft | 407 kts | 54° |
| 2026-04-26 03:22 | 34.05788 | -118.21226 | 19322 ft | 411 kts | 54° |
| 2026-04-26 03:22 | 34.07414 | -118.18364 | 19879 ft | 416 kts | 55° |
| 2026-04-26 03:23 | 34.09024 | -118.15526 | 20429 ft | 420 kts | 55° |
| 2026-04-26 03:23 | 34.10686 | -118.12594 | 20985 ft | 425 kts | 55° |
| 2026-04-26 03:23 | 34.12362 | -118.09628 | 21536 ft | 430 kts | 55° |
| 2026-04-26 03:23 | 34.14048 | -118.06629 | 22075 ft | 435 kts | 56° |
| 2026-04-26 03:24 | 34.15756 | -118.03587 | 22575 ft | 441 kts | 56° |
| 2026-04-26 03:24 | 34.17490 | -118.00507 | 23107 ft | 446 kts | 56° |
| 2026-04-26 03:24 | 34.19242 | -117.97398 | 23617 ft | 451 kts | 56° |
| 2026-04-26 03:24 | 34.21016 | -117.94251 | 24084 ft | 455 kts | 56° |
| 2026-04-26 03:25 | 34.22804 | -117.91075 | 24541 ft | 459 kts | 56° |
| 2026-04-26 03:25 | 34.24583 | -117.87911 | 24954 ft | 463 kts | 56° |
| 2026-04-26 03:25 | 34.26419 | -117.84638 | 25410 ft | 466 kts | 56° |
| 2026-04-26 03:25 | 34.28217 | -117.81422 | 25833 ft | 469 kts | 56° |
| 2026-04-26 03:26 | 34.30053 | -117.78138 | 26274 ft | 473 kts | 56° |
| 2026-04-26 03:26 | 34.31903 | -117.74833 | 26668 ft | 476 kts | 56° |
| 2026-04-26 03:26 | 34.33762 | -117.71503 | 27083 ft | 479 kts | 56° |
| 2026-04-26 03:26 | 34.35634 | -117.68155 | 27480 ft | 483 kts | 56° |
| 2026-04-26 03:27 | 34.37561 | -117.64809 | 27860 ft | 486 kts | 54° |
| 2026-04-26 03:27 | 34.39545 | -117.61476 | 28224 ft | 489 kts | 53° |
| 2026-04-26 03:27 | 34.41568 | -117.58144 | 28598 ft | 492 kts | 53° |
| 2026-04-26 03:27 | 34.43611 | -117.54797 | 28975 ft | 496 kts | 53° |
| 2026-04-26 03:28 | 34.45658 | -117.51426 | 29471 ft | 497 kts | 54° |
| 2026-04-26 03:28 | 34.47697 | -117.48038 | 29914 ft | 498 kts | 54° |
| 2026-04-26 03:28 | 34.49732 | -117.44626 | 30241 ft | 500 kts | 54° |
| 2026-04-26 03:28 | 34.51771 | -117.41188 | 30590 ft | 502 kts | 54° |
| 2026-04-26 03:29 | 34.53809 | -117.37738 | 30906 ft | 504 kts | 54° |
| 2026-04-26 03:29 | 34.55853 | -117.34276 | 31192 ft | 507 kts | 54° |
| 2026-04-26 03:29 | 34.57916 | -117.30778 | 31479 ft | 510 kts | 54° |
| 2026-04-26 03:29 | 34.59987 | -117.27270 | 31778 ft | 512 kts | 54° |
| 2026-04-26 03:30 | 34.62071 | -117.23746 | 32053 ft | 515 kts | 54° |
| 2026-04-26 03:30 | 34.64161 | -117.20210 | 32408 ft | 515 kts | 54° |
| 2026-04-26 03:30 | 34.66226 | -117.16714 | 32702 ft | 515 kts | 54° |
| 2026-04-26 03:30 | 34.68312 | -117.13180 | 33124 ft | 514 kts | 54° |
| 2026-04-26 03:31 | 34.70395 | -117.09649 | 33524 ft | 514 kts | 55° |
| 2026-04-26 03:31 | 34.72476 | -117.06114 | 33902 ft | 514 kts | 55° |
| 2026-04-26 03:31 | 34.74555 | -117.02576 | 34216 ft | 514 kts | 55° |
| 2026-04-26 03:31 | 34.76634 | -116.99033 | 34532 ft | 514 kts | 54° |